sensor_id;sensor_type;location;lat;lon;timestamp;P1;durP1;ratioP1;P2;durP2;ratioP2
18334;SDS011;9293;49.524;10.964;2023-01-10T00:01:50;2.13;;;1.00;;
18334;SDS011;9293;49.524;10.964;2023-01-10T00:04:18;3.50;;;1.30;;
18334;SDS011;9293;49.524;10.964;2023-01-10T00:06:46;2.92;;;1.40;;
18334;SDS011;9293;49.524;10.964;2023-01-10T00:09:14;4.72;;;1.20;;
18334;SDS011;9293;49.524;10.964;2023-01-10T00:11:42;5.00;;;1.30;;
18334;SDS011;9293;49.524;10.964;2023-01-10T00:14:28;4.30;;;0.98;;
18334;SDS011;9293;49.524;10.964;2023-01-10T00:16:56;4.07;;;1.38;;
18334;SDS011;9293;49.524;10.964;2023-01-10T00:19:24;2.42;;;1.17;;
18334;SDS011;9293;49.524;10.964;2023-01-10T00:21:52;5.85;;;1.42;;
18334;SDS011;9293;49.524;10.964;2023-01-10T00:24:21;3.15;;;1.20;;
18334;SDS011;9293;49.524;10.964;2023-01-10T00:26:50;4.25;;;1.50;;
18334;SDS011;9293;49.524;10.964;2023-01-10T00:29:23;3.92;;;1.33;;
18334;SDS011;9293;49.524;10.964;2023-01-10T00:31:54;3.40;;;1.48;;
18334;SDS011;9293;49.524;10.964;2023-01-10T00:34:22;4.18;;;1.42;;
18334;SDS011;9293;49.524;10.964;2023-01-10T00:36:50;2.45;;;1.63;;
18334;SDS011;9293;49.524;10.964;2023-01-10T00:39:18;1.85;;;1.25;;
18334;SDS011;9293;49.524;10.964;2023-01-10T00:41:47;3.88;;;1.83;;
18334;SDS011;9293;49.524;10.964;2023-01-10T00:44:33;4.18;;;2.00;;
18334;SDS011;9293;49.524;10.964;2023-01-10T00:47:01;2.97;;;1.90;;
18334;SDS011;9293;49.524;10.964;2023-01-10T00:49:30;4.40;;;1.92;;
18334;SDS011;9293;49.524;10.964;2023-01-10T00:51:58;4.00;;;1.58;;
18334;SDS011;9293;49.524;10.964;2023-01-10T00:54:26;3.72;;;1.70;;
18334;SDS011;9293;49.524;10.964;2023-01-10T00:56:54;3.40;;;1.90;;
18334;SDS011;9293;49.524;10.964;2023-01-10T00:59:22;4.13;;;1.85;;
18334;SDS011;9293;49.524;10.964;2023-01-10T01:01:50;3.75;;;1.73;;
18334;SDS011;9293;49.524;10.964;2023-01-10T01:04:19;2.13;;;1.58;;
18334;SDS011;9293;49.524;10.964;2023-01-10T01:06:47;2.75;;;1.80;;
18334;SDS011;9293;49.524;10.964;2023-01-10T01:09:17;3.65;;;2.08;;
18334;SDS011;9293;49.524;10.964;2023-01-10T01:11:45;2.33;;;1.70;;
18334;SDS011;9293;49.524;10.964;2023-01-10T01:14:13;3.15;;;1.98;;
18334;SDS011;9293;49.524;10.964;2023-01-10T01:16:41;3.78;;;1.95;;
18334;SDS011;9293;49.524;10.964;2023-01-10T01:19:09;4.88;;;2.20;;
18334;SDS011;9293;49.524;10.964;2023-01-10T01:21:37;3.42;;;1.80;;
18334;SDS011;9293;49.524;10.964;2023-01-10T01:24:05;4.88;;;2.20;;
18334;SDS011;9293;49.524;10.964;2023-01-10T01:26:34;3.78;;;1.88;;
18334;SDS011;9293;49.524;10.964;2023-01-10T01:29:02;4.10;;;2.22;;
18334;SDS011;9293;49.524;10.964;2023-01-10T01:31:30;2.67;;;1.55;;
18334;SDS011;9293;49.524;10.964;2023-01-10T01:33:59;3.20;;;1.80;;
18334;SDS011;9293;49.524;10.964;2023-01-10T01:36:27;3.03;;;1.70;;
18334;SDS011;9293;49.524;10.964;2023-01-10T01:38:55;2.58;;;1.75;;
18334;SDS011;9293;49.524;10.964;2023-01-10T01:41:23;4.80;;;1.85;;
18334;SDS011;9293;49.524;10.964;2023-01-10T01:44:13;2.83;;;1.80;;
18334;SDS011;9293;49.524;10.964;2023-01-10T01:46:53;1.90;;;1.70;;
18334;SDS011;9293;49.524;10.964;2023-01-10T01:49:29;2.83;;;1.85;;
18334;SDS011;9293;49.524;10.964;2023-01-10T01:52:01;2.08;;;1.63;;
18334;SDS011;9293;49.524;10.964;2023-01-10T01:54:35;2.83;;;1.65;;
18334;SDS011;9293;49.524;10.964;2023-01-10T01:57:08;4.25;;;2.50;;
18334;SDS011;9293;49.524;10.964;2023-01-10T01:59:41;2.65;;;1.60;;
18334;SDS011;9293;49.524;10.964;2023-01-10T02:02:16;2.65;;;1.67;;
18334;SDS011;9293;49.524;10.964;2023-01-10T02:07:51;3.28;;;1.40;;
18334;SDS011;9293;49.524;10.964;2023-01-10T02:10:41;3.20;;;1.73;;
18334;SDS011;9293;49.524;10.964;2023-01-10T02:13:15;2.80;;;1.80;;
18334;SDS011;9293;49.524;10.964;2023-01-10T02:15:45;2.10;;;1.23;;
18334;SDS011;9293;49.524;10.964;2023-01-10T02:18:13;1.95;;;1.50;;
18334;SDS011;9293;49.524;10.964;2023-01-10T02:23:39;1.77;;;1.35;;
18334;SDS011;9293;49.524;10.964;2023-01-10T02:29:18;1.38;;;1.27;;
18334;SDS011;9293;49.524;10.964;2023-01-10T02:34:39;1.73;;;1.50;;
18334;SDS011;9293;49.524;10.964;2023-01-10T02:43:44;2.33;;;1.70;;
18334;SDS011;9293;49.524;10.964;2023-01-10T02:48:29;4.32;;;1.70;;
18334;SDS011;9293;49.524;10.964;2023-01-10T02:51:05;1.77;;;1.63;;
18334;SDS011;9293;49.524;10.964;2023-01-10T02:53:42;2.72;;;1.70;;
18334;SDS011;9293;49.524;10.964;2023-01-10T03:04:50;2.75;;;2.17;;
18334;SDS011;9293;49.524;10.964;2023-01-10T03:07:42;5.50;;;2.87;;
18334;SDS011;9293;49.524;10.964;2023-01-10T03:13:04;3.78;;;2.50;;
18334;SDS011;9293;49.524;10.964;2023-01-10T03:15:37;4.35;;;3.22;;
18334;SDS011;9293;49.524;10.964;2023-01-10T03:18:14;5.28;;;2.60;;
18334;SDS011;9293;49.524;10.964;2023-01-10T03:20:48;2.97;;;2.67;;
18334;SDS011;9293;49.524;10.964;2023-01-10T03:23:19;3.88;;;2.75;;
18334;SDS011;9293;49.524;10.964;2023-01-10T03:25:51;3.58;;;2.92;;
18334;SDS011;9293;49.524;10.964;2023-01-10T03:28:26;5.70;;;2.85;;
18334;SDS011;9293;49.524;10.964;2023-01-10T03:31:09;4.07;;;3.15;;
18334;SDS011;9293;49.524;10.964;2023-01-10T03:33:41;3.55;;;2.92;;
18334;SDS011;9293;49.524;10.964;2023-01-10T03:42:01;3.58;;;2.80;;
18334;SDS011;9293;49.524;10.964;2023-01-10T03:47:37;3.58;;;2.85;;
18334;SDS011;9293;49.524;10.964;2023-01-10T03:50:20;4.80;;;3.10;;
18334;SDS011;9293;49.524;10.964;2023-01-10T03:52:50;3.72;;;2.92;;
18334;SDS011;9293;49.524;10.964;2023-01-10T03:55:19;5.30;;;3.22;;
18334;SDS011;9293;49.524;10.964;2023-01-10T03:57:49;3.40;;;2.53;;
18334;SDS011;9293;49.524;10.964;2023-01-10T04:00:17;3.72;;;3.03;;
18334;SDS011;9293;49.524;10.964;2023-01-10T04:02:45;4.40;;;2.78;;
18334;SDS011;9293;49.524;10.964;2023-01-10T04:05:13;3.38;;;2.70;;
18334;SDS011;9293;49.524;10.964;2023-01-10T04:07:41;3.65;;;2.83;;
18334;SDS011;9293;49.524;10.964;2023-01-10T04:10:13;5.13;;;3.20;;
18334;SDS011;9293;49.524;10.964;2023-01-10T04:12:44;3.60;;;2.85;;
18334;SDS011;9293;49.524;10.964;2023-01-10T04:15:12;4.10;;;3.20;;
18334;SDS011;9293;49.524;10.964;2023-01-10T04:17:40;4.57;;;3.67;;
18334;SDS011;9293;49.524;10.964;2023-01-10T04:20:08;4.68;;;3.15;;
18334;SDS011;9293;49.524;10.964;2023-01-10T04:22:37;5.60;;;3.30;;
18334;SDS011;9293;49.524;10.964;2023-01-10T04:25:05;4.07;;;3.45;;
18334;SDS011;9293;49.524;10.964;2023-01-10T04:27:33;4.90;;;3.78;;
18334;SDS011;9293;49.524;10.964;2023-01-10T04:30:01;5.95;;;3.50;;
18334;SDS011;9293;49.524;10.964;2023-01-10T04:32:29;3.97;;;3.40;;
18334;SDS011;9293;49.524;10.964;2023-01-10T04:34:57;4.85;;;3.35;;
18334;SDS011;9293;49.524;10.964;2023-01-10T04:37:25;6.38;;;3.85;;
18334;SDS011;9293;49.524;10.964;2023-01-10T04:39:53;4.22;;;3.33;;
18334;SDS011;9293;49.524;10.964;2023-01-10T04:42:21;5.65;;;3.33;;
18334;SDS011;9293;49.524;10.964;2023-01-10T04:44:49;5.45;;;3.20;;
18334;SDS011;9293;49.524;10.964;2023-01-10T04:47:17;4.55;;;3.25;;
18334;SDS011;9293;49.524;10.964;2023-01-10T04:49:45;6.07;;;3.75;;
18334;SDS011;9293;49.524;10.964;2023-01-10T04:52:13;5.82;;;3.38;;
18334;SDS011;9293;49.524;10.964;2023-01-10T04:54:41;4.85;;;3.45;;
18334;SDS011;9293;49.524;10.964;2023-01-10T04:57:09;3.97;;;3.30;;
18334;SDS011;9293;49.524;10.964;2023-01-10T04:59:37;3.83;;;3.33;;
18334;SDS011;9293;49.524;10.964;2023-01-10T05:02:05;5.38;;;3.88;;
18334;SDS011;9293;49.524;10.964;2023-01-10T05:04:33;6.22;;;3.50;;
18334;SDS011;9293;49.524;10.964;2023-01-10T05:07:01;5.18;;;3.67;;
18334;SDS011;9293;49.524;10.964;2023-01-10T05:09:33;6.50;;;3.60;;
18334;SDS011;9293;49.524;10.964;2023-01-10T05:12:01;5.18;;;3.95;;
18334;SDS011;9293;49.524;10.964;2023-01-10T05:14:29;5.43;;;3.80;;
18334;SDS011;9293;49.524;10.964;2023-01-10T05:16:57;5.18;;;3.38;;
18334;SDS011;9293;49.524;10.964;2023-01-10T05:19:25;4.90;;;3.65;;
18334;SDS011;9293;49.524;10.964;2023-01-10T05:21:53;10.23;;;4.40;;
18334;SDS011;9293;49.524;10.964;2023-01-10T05:24:21;7.60;;;4.38;;
18334;SDS011;9293;49.524;10.964;2023-01-10T05:26:49;9.23;;;4.32;;
18334;SDS011;9293;49.524;10.964;2023-01-10T05:29:17;6.20;;;4.30;;
18334;SDS011;9293;49.524;10.964;2023-01-10T05:31:46;7.60;;;3.90;;
18334;SDS011;9293;49.524;10.964;2023-01-10T05:34:18;5.28;;;3.55;;
18334;SDS011;9293;49.524;10.964;2023-01-10T05:36:46;5.90;;;3.88;;
18334;SDS011;9293;49.524;10.964;2023-01-10T05:39:14;6.30;;;3.92;;
18334;SDS011;9293;49.524;10.964;2023-01-10T05:41:41;6.50;;;3.80;;
18334;SDS011;9293;49.524;10.964;2023-01-10T05:44:12;3.92;;;3.20;;
18334;SDS011;9293;49.524;10.964;2023-01-10T05:46:40;5.15;;;3.78;;
18334;SDS011;9293;49.524;10.964;2023-01-10T05:49:08;6.13;;;3.53;;
18334;SDS011;9293;49.524;10.964;2023-01-10T05:51:37;8.38;;;3.20;;
18334;SDS011;9293;49.524;10.964;2023-01-10T05:54:05;7.85;;;3.28;;
18334;SDS011;9293;49.524;10.964;2023-01-10T05:56:33;5.57;;;3.03;;
18334;SDS011;9293;49.524;10.964;2023-01-10T05:59:01;6.57;;;2.80;;
18334;SDS011;9293;49.524;10.964;2023-01-10T06:01:41;5.93;;;3.03;;
18334;SDS011;9293;49.524;10.964;2023-01-10T06:04:12;4.93;;;2.25;;
18334;SDS011;9293;49.524;10.964;2023-01-10T06:06:43;4.65;;;3.17;;
18334;SDS011;9293;49.524;10.964;2023-01-10T06:09:11;4.45;;;3.03;;
18334;SDS011;9293;49.524;10.964;2023-01-10T06:11:39;3.95;;;2.42;;
18334;SDS011;9293;49.524;10.964;2023-01-10T06:14:07;4.72;;;2.35;;
18334;SDS011;9293;49.524;10.964;2023-01-10T06:16:35;6.85;;;2.90;;
18334;SDS011;9293;49.524;10.964;2023-01-10T06:19:03;5.82;;;2.38;;
18334;SDS011;9293;49.524;10.964;2023-01-10T06:21:31;5.70;;;2.90;;
18334;SDS011;9293;49.524;10.964;2023-01-10T06:23:59;4.97;;;3.00;;
18334;SDS011;9293;49.524;10.964;2023-01-10T06:26:27;7.45;;;3.42;;
18334;SDS011;9293;49.524;10.964;2023-01-10T06:28:55;9.55;;;3.25;;
18334;SDS011;9293;49.524;10.964;2023-01-10T06:31:25;4.45;;;2.78;;
18334;SDS011;9293;49.524;10.964;2023-01-10T06:33:53;6.68;;;2.90;;
18334;SDS011;9293;49.524;10.964;2023-01-10T06:36:21;12.35;;;7.55;;
18334;SDS011;9293;49.524;10.964;2023-01-10T06:38:49;5.30;;;2.42;;
18334;SDS011;9293;49.524;10.964;2023-01-10T06:41:17;6.70;;;3.10;;
18334;SDS011;9293;49.524;10.964;2023-01-10T06:43:45;6.32;;;2.92;;
18334;SDS011;9293;49.524;10.964;2023-01-10T06:46:14;6.18;;;3.15;;
18334;SDS011;9293;49.524;10.964;2023-01-10T06:48:45;4.70;;;2.97;;
18334;SDS011;9293;49.524;10.964;2023-01-10T06:51:14;5.80;;;2.72;;
18334;SDS011;9293;49.524;10.964;2023-01-10T06:56:13;5.30;;;3.05;;
18334;SDS011;9293;49.524;10.964;2023-01-10T06:58:41;6.80;;;3.05;;
18334;SDS011;9293;49.524;10.964;2023-01-10T07:01:13;5.50;;;2.83;;
18334;SDS011;9293;49.524;10.964;2023-01-10T07:03:43;6.90;;;3.38;;
18334;SDS011;9293;49.524;10.964;2023-01-10T07:06:11;6.60;;;3.30;;
18334;SDS011;9293;49.524;10.964;2023-01-10T07:08:40;6.00;;;2.88;;
18334;SDS011;9293;49.524;10.964;2023-01-10T07:11:10;7.05;;;2.83;;
18334;SDS011;9293;49.524;10.964;2023-01-10T07:13:39;5.47;;;2.47;;
18334;SDS011;9293;49.524;10.964;2023-01-10T07:16:12;8.18;;;2.70;;
18334;SDS011;9293;49.524;10.964;2023-01-10T07:18:42;5.65;;;2.60;;
18334;SDS011;9293;49.524;10.964;2023-01-10T07:21:10;6.20;;;2.72;;
18334;SDS011;9293;49.524;10.964;2023-01-10T07:23:38;6.32;;;3.13;;
18334;SDS011;9293;49.524;10.964;2023-01-10T07:26:08;8.43;;;3.15;;
18334;SDS011;9293;49.524;10.964;2023-01-10T07:28:41;7.77;;;3.03;;
18334;SDS011;9293;49.524;10.964;2023-01-10T07:31:13;3.72;;;2.60;;
18334;SDS011;9293;49.524;10.964;2023-01-10T07:33:42;6.45;;;2.72;;
18334;SDS011;9293;49.524;10.964;2023-01-10T07:36:10;6.43;;;2.30;;
18334;SDS011;9293;49.524;10.964;2023-01-10T07:38:38;6.45;;;2.05;;
18334;SDS011;9293;49.524;10.964;2023-01-10T07:41:06;6.80;;;2.33;;
18334;SDS011;9293;49.524;10.964;2023-01-10T07:43:35;6.22;;;2.40;;
18334;SDS011;9293;49.524;10.964;2023-01-10T07:46:06;9.85;;;3.17;;
18334;SDS011;9293;49.524;10.964;2023-01-10T07:48:35;7.07;;;2.70;;
18334;SDS011;9293;49.524;10.964;2023-01-10T07:51:04;6.35;;;2.30;;
18334;SDS011;9293;49.524;10.964;2023-01-10T07:53:32;7.53;;;2.67;;
18334;SDS011;9293;49.524;10.964;2023-01-10T07:56:01;6.97;;;2.55;;
18334;SDS011;9293;49.524;10.964;2023-01-10T07:58:30;5.32;;;1.95;;
18334;SDS011;9293;49.524;10.964;2023-01-10T08:01:00;5.93;;;1.70;;
18334;SDS011;9293;49.524;10.964;2023-01-10T08:03:29;6.18;;;1.75;;
18334;SDS011;9293;49.524;10.964;2023-01-10T08:06:00;4.40;;;1.83;;
18334;SDS011;9293;49.524;10.964;2023-01-10T08:08:32;5.82;;;1.90;;
18334;SDS011;9293;49.524;10.964;2023-01-10T08:11:00;6.50;;;1.73;;
18334;SDS011;9293;49.524;10.964;2023-01-10T08:13:29;10.15;;;2.25;;
18334;SDS011;9293;49.524;10.964;2023-01-10T08:15:58;6.85;;;2.25;;
18334;SDS011;9293;49.524;10.964;2023-01-10T08:18:30;4.30;;;2.17;;
18334;SDS011;9293;49.524;10.964;2023-01-10T08:20:58;9.85;;;2.05;;
18334;SDS011;9293;49.524;10.964;2023-01-10T08:23:27;5.07;;;2.50;;
18334;SDS011;9293;49.524;10.964;2023-01-10T08:25:56;4.20;;;1.60;;
18334;SDS011;9293;49.524;10.964;2023-01-10T08:28:25;10.37;;;4.57;;
18334;SDS011;9293;49.524;10.964;2023-01-10T08:30:53;6.22;;;1.80;;
18334;SDS011;9293;49.524;10.964;2023-01-10T08:33:22;7.10;;;1.95;;
18334;SDS011;9293;49.524;10.964;2023-01-10T08:35:51;6.95;;;2.10;;
18334;SDS011;9293;49.524;10.964;2023-01-10T08:38:19;7.45;;;2.10;;
18334;SDS011;9293;49.524;10.964;2023-01-10T08:40:47;6.57;;;2.53;;
18334;SDS011;9293;49.524;10.964;2023-01-10T08:43:15;9.15;;;2.25;;
18334;SDS011;9293;49.524;10.964;2023-01-10T08:45:43;10.30;;;2.90;;
18334;SDS011;9293;49.524;10.964;2023-01-10T08:48:11;5.57;;;2.00;;
18334;SDS011;9293;49.524;10.964;2023-01-10T08:50:41;7.93;;;2.30;;
18334;SDS011;9293;49.524;10.964;2023-01-10T08:53:10;8.13;;;2.17;;
18334;SDS011;9293;49.524;10.964;2023-01-10T08:55:42;9.50;;;2.10;;
18334;SDS011;9293;49.524;10.964;2023-01-10T08:58:10;7.90;;;2.40;;
18334;SDS011;9293;49.524;10.964;2023-01-10T09:00:38;7.30;;;2.42;;
18334;SDS011;9293;49.524;10.964;2023-01-10T09:03:06;6.95;;;2.55;;
18334;SDS011;9293;49.524;10.964;2023-01-10T09:05:34;5.43;;;2.78;;
18334;SDS011;9293;49.524;10.964;2023-01-10T09:08:03;6.38;;;2.78;;
18334;SDS011;9293;49.524;10.964;2023-01-10T09:10:31;6.85;;;2.65;;
18334;SDS011;9293;49.524;10.964;2023-01-10T09:12:59;7.20;;;3.03;;
18334;SDS011;9293;49.524;10.964;2023-01-10T09:15:28;5.78;;;2.58;;
18334;SDS011;9293;49.524;10.964;2023-01-10T09:17:59;7.80;;;3.30;;
18334;SDS011;9293;49.524;10.964;2023-01-10T09:20:28;9.25;;;2.92;;
18334;SDS011;9293;49.524;10.964;2023-01-10T09:22:57;8.05;;;3.00;;
18334;SDS011;9293;49.524;10.964;2023-01-10T09:25:25;9.23;;;2.85;;
18334;SDS011;9293;49.524;10.964;2023-01-10T09:27:57;10.10;;;2.72;;
18334;SDS011;9293;49.524;10.964;2023-01-10T09:30:27;5.20;;;2.60;;
18334;SDS011;9293;49.524;10.964;2023-01-10T09:32:56;8.38;;;3.28;;
18334;SDS011;9293;49.524;10.964;2023-01-10T09:35:25;5.55;;;2.33;;
18334;SDS011;9293;49.524;10.964;2023-01-10T09:37:58;8.00;;;2.90;;
18334;SDS011;9293;49.524;10.964;2023-01-10T09:43:15;7.65;;;2.85;;
18334;SDS011;9293;49.524;10.964;2023-01-10T09:46:09;5.95;;;2.83;;
18334;SDS011;9293;49.524;10.964;2023-01-10T09:48:54;8.05;;;2.67;;
18334;SDS011;9293;49.524;10.964;2023-01-10T09:51:42;7.15;;;2.70;;
18334;SDS011;9293;49.524;10.964;2023-01-10T09:54:30;5.80;;;2.35;;
18334;SDS011;9293;49.524;10.964;2023-01-10T09:57:02;9.77;;;2.38;;
18334;SDS011;9293;49.524;10.964;2023-01-10T09:59:37;10.57;;;2.17;;
18334;SDS011;9293;49.524;10.964;2023-01-10T10:02:30;6.85;;;2.78;;
18334;SDS011;9293;49.524;10.964;2023-01-10T10:07:35;9.18;;;2.50;;
18334;SDS011;9293;49.524;10.964;2023-01-10T10:10:04;12.20;;;5.03;;
18334;SDS011;9293;49.524;10.964;2023-01-10T10:15:25;7.82;;;2.38;;
18334;SDS011;9293;49.524;10.964;2023-01-10T10:18:27;8.13;;;2.03;;
18334;SDS011;9293;49.524;10.964;2023-01-10T10:21:16;8.48;;;2.35;;
18334;SDS011;9293;49.524;10.964;2023-01-10T10:24:08;8.40;;;2.80;;
18334;SDS011;9293;49.524;10.964;2023-01-10T10:26:55;13.45;;;2.40;;
18334;SDS011;9293;49.524;10.964;2023-01-10T10:35:31;10.57;;;2.30;;
18334;SDS011;9293;49.524;10.964;2023-01-10T10:38:07;8.02;;;2.10;;
18334;SDS011;9293;49.524;10.964;2023-01-10T10:40:43;9.35;;;2.35;;
18334;SDS011;9293;49.524;10.964;2023-01-10T10:43:18;8.52;;;1.90;;
18334;SDS011;9293;49.524;10.964;2023-01-10T10:46:08;8.50;;;3.13;;
18334;SDS011;9293;49.524;10.964;2023-01-10T10:48:58;9.43;;;2.38;;
18334;SDS011;9293;49.524;10.964;2023-01-10T10:51:37;4.93;;;2.13;;
18334;SDS011;9293;49.524;10.964;2023-01-10T10:54:14;14.10;;;9.52;;
18334;SDS011;9293;49.524;10.964;2023-01-10T10:56:42;15.13;;;8.55;;
18334;SDS011;9293;49.524;10.964;2023-01-10T10:59:14;8.32;;;3.78;;
18334;SDS011;9293;49.524;10.964;2023-01-10T11:01:49;9.27;;;3.08;;
18334;SDS011;9293;49.524;10.964;2023-01-10T11:04:21;6.28;;;2.45;;
18334;SDS011;9293;49.524;10.964;2023-01-10T11:06:49;10.98;;;2.25;;
18334;SDS011;9293;49.524;10.964;2023-01-10T11:09:19;8.10;;;2.53;;
18334;SDS011;9293;49.524;10.964;2023-01-10T11:12:15;11.30;;;2.72;;
18334;SDS011;9293;49.524;10.964;2023-01-10T11:14:47;10.95;;;3.10;;
18334;SDS011;9293;49.524;10.964;2023-01-10T11:17:19;7.57;;;2.22;;
18334;SDS011;9293;49.524;10.964;2023-01-10T11:19:55;15.07;;;5.00;;
18334;SDS011;9293;49.524;10.964;2023-01-10T11:22:29;11.23;;;2.55;;
18334;SDS011;9293;49.524;10.964;2023-01-10T11:25:12;7.47;;;2.35;;
18334;SDS011;9293;49.524;10.964;2023-01-10T11:27:52;5.63;;;2.00;;
18334;SDS011;9293;49.524;10.964;2023-01-10T11:30:27;8.23;;;2.13;;
18334;SDS011;9293;49.524;10.964;2023-01-10T11:33:03;9.93;;;1.52;;
18334;SDS011;9293;49.524;10.964;2023-01-10T11:35:35;7.50;;;1.58;;
18334;SDS011;9293;49.524;10.964;2023-01-10T11:43:39;9.15;;;1.80;;
18334;SDS011;9293;49.524;10.964;2023-01-10T11:48:44;7.25;;;1.42;;
18334;SDS011;9293;49.524;10.964;2023-01-10T11:51:35;6.70;;;2.30;;
18334;SDS011;9293;49.524;10.964;2023-01-10T11:54:06;10.48;;;1.85;;
18334;SDS011;9293;49.524;10.964;2023-01-10T11:56:39;10.48;;;1.85;;
18334;SDS011;9293;49.524;10.964;2023-01-10T11:59:13;7.15;;;1.70;;
18334;SDS011;9293;49.524;10.964;2023-01-10T12:04:40;8.95;;;1.70;;
18334;SDS011;9293;49.524;10.964;2023-01-10T12:07:11;7.60;;;1.52;;
18334;SDS011;9293;49.524;10.964;2023-01-10T12:09:43;5.93;;;1.77;;
18334;SDS011;9293;49.524;10.964;2023-01-10T12:14:56;8.90;;;2.15;;
18334;SDS011;9293;49.524;10.964;2023-01-10T12:17:30;9.20;;;1.92;;
18334;SDS011;9293;49.524;10.964;2023-01-10T12:20:02;11.25;;;2.33;;
18334;SDS011;9293;49.524;10.964;2023-01-10T12:22:36;6.70;;;1.35;;
18334;SDS011;9293;49.524;10.964;2023-01-10T12:25:20;5.43;;;1.45;;
18334;SDS011;9293;49.524;10.964;2023-01-10T12:27:51;10.13;;;2.10;;
18334;SDS011;9293;49.524;10.964;2023-01-10T12:33:01;8.48;;;2.10;;
18334;SDS011;9293;49.524;10.964;2023-01-10T12:35:37;8.73;;;1.80;;
18334;SDS011;9293;49.524;10.964;2023-01-10T12:38:28;7.97;;;1.80;;
18334;SDS011;9293;49.524;10.964;2023-01-10T12:41:29;9.20;;;2.03;;
18334;SDS011;9293;49.524;10.964;2023-01-10T12:44:22;6.32;;;1.70;;
18334;SDS011;9293;49.524;10.964;2023-01-10T12:47:06;6.88;;;1.65;;
18334;SDS011;9293;49.524;10.964;2023-01-10T12:50:02;10.32;;;2.13;;
18334;SDS011;9293;49.524;10.964;2023-01-10T12:52:53;8.48;;;2.05;;
18334;SDS011;9293;49.524;10.964;2023-01-10T12:55:30;12.18;;;2.80;;
18334;SDS011;9293;49.524;10.964;2023-01-10T12:58:06;6.15;;;1.30;;
18334;SDS011;9293;49.524;10.964;2023-01-10T13:00:57;6.07;;;1.52;;
18334;SDS011;9293;49.524;10.964;2023-01-10T13:03:28;9.13;;;1.65;;
18334;SDS011;9293;49.524;10.964;2023-01-10T13:05:59;8.90;;;1.45;;
18334;SDS011;9293;49.524;10.964;2023-01-10T13:08:31;10.73;;;1.60;;
18334;SDS011;9293;49.524;10.964;2023-01-10T13:11:02;7.35;;;2.05;;
18334;SDS011;9293;49.524;10.964;2023-01-10T13:13:38;8.27;;;1.63;;
18334;SDS011;9293;49.524;10.964;2023-01-10T13:19:00;5.63;;;1.40;;
18334;SDS011;9293;49.524;10.964;2023-01-10T13:21:47;7.93;;;1.75;;
18334;SDS011;9293;49.524;10.964;2023-01-10T13:24:18;6.60;;;1.95;;
18334;SDS011;9293;49.524;10.964;2023-01-10T13:29:26;7.40;;;1.73;;
18334;SDS011;9293;49.524;10.964;2023-01-10T13:31:58;8.82;;;2.00;;
18334;SDS011;9293;49.524;10.964;2023-01-10T13:34:31;8.70;;;1.88;;
18334;SDS011;9293;49.524;10.964;2023-01-10T13:37:03;8.27;;;2.15;;
18334;SDS011;9293;49.524;10.964;2023-01-10T13:39:41;9.15;;;2.30;;
18334;SDS011;9293;49.524;10.964;2023-01-10T13:45:22;9.43;;;1.73;;
18334;SDS011;9293;49.524;10.964;2023-01-10T13:52:52;9.20;;;2.03;;
18334;SDS011;9293;49.524;10.964;2023-01-10T13:55:31;8.30;;;2.00;;
18334;SDS011;9293;49.524;10.964;2023-01-10T14:00:41;6.95;;;1.75;;
18334;SDS011;9293;49.524;10.964;2023-01-10T14:03:53;10.15;;;1.70;;
18334;SDS011;9293;49.524;10.964;2023-01-10T14:11:23;7.70;;;1.80;;
18334;SDS011;9293;49.524;10.964;2023-01-10T14:13:59;6.85;;;2.08;;
18334;SDS011;9293;49.524;10.964;2023-01-10T14:16:35;10.77;;;2.60;;
18334;SDS011;9293;49.524;10.964;2023-01-10T14:19:28;11.10;;;3.28;;
18334;SDS011;9293;49.524;10.964;2023-01-10T14:21:59;9.05;;;2.25;;
18334;SDS011;9293;49.524;10.964;2023-01-10T14:27:12;6.63;;;2.17;;
18334;SDS011;9293;49.524;10.964;2023-01-10T14:29:47;9.52;;;1.90;;
18334;SDS011;9293;49.524;10.964;2023-01-10T14:32:18;8.55;;;1.80;;
18334;SDS011;9293;49.524;10.964;2023-01-10T14:35:06;7.80;;;1.73;;
18334;SDS011;9293;49.524;10.964;2023-01-10T14:40:17;10.88;;;2.30;;
18334;SDS011;9293;49.524;10.964;2023-01-10T14:42:50;10.93;;;2.03;;
18334;SDS011;9293;49.524;10.964;2023-01-10T14:45:28;12.85;;;1.90;;
18334;SDS011;9293;49.524;10.964;2023-01-10T14:54:11;9.88;;;2.10;;
18334;SDS011;9293;49.524;10.964;2023-01-10T14:56:43;9.40;;;1.90;;
18334;SDS011;9293;49.524;10.964;2023-01-10T15:01:59;15.15;;;2.75;;
18334;SDS011;9293;49.524;10.964;2023-01-10T15:04:48;9.32;;;2.03;;
18334;SDS011;9293;49.524;10.964;2023-01-10T15:07:26;11.50;;;2.00;;
18334;SDS011;9293;49.524;10.964;2023-01-10T15:09:55;8.20;;;2.15;;
18334;SDS011;9293;49.524;10.964;2023-01-10T15:12:28;8.60;;;1.95;;
18334;SDS011;9293;49.524;10.964;2023-01-10T15:15:02;7.05;;;2.35;;
18334;SDS011;9293;49.524;10.964;2023-01-10T15:17:38;10.48;;;2.55;;
18334;SDS011;9293;49.524;10.964;2023-01-10T15:20:12;11.25;;;2.60;;
18334;SDS011;9293;49.524;10.964;2023-01-10T15:22:58;8.02;;;2.08;;
18334;SDS011;9293;49.524;10.964;2023-01-10T15:25:34;11.32;;;2.63;;
18334;SDS011;9293;49.524;10.964;2023-01-10T15:28:13;9.75;;;2.03;;
18334;SDS011;9293;49.524;10.964;2023-01-10T15:30:42;9.60;;;2.25;;
18334;SDS011;9293;49.524;10.964;2023-01-10T15:33:11;7.45;;;2.35;;
18334;SDS011;9293;49.524;10.964;2023-01-10T15:35:47;12.90;;;2.88;;
18334;SDS011;9293;49.524;10.964;2023-01-10T15:38:16;13.52;;;2.40;;
18334;SDS011;9293;49.524;10.964;2023-01-10T15:40:58;10.10;;;2.53;;
18334;SDS011;9293;49.524;10.964;2023-01-10T15:43:32;10.98;;;3.00;;
18334;SDS011;9293;49.524;10.964;2023-01-10T15:46:04;13.63;;;3.65;;
18334;SDS011;9293;49.524;10.964;2023-01-10T15:48:38;9.95;;;3.25;;
18334;SDS011;9293;49.524;10.964;2023-01-10T15:54:02;14.38;;;3.20;;
18334;SDS011;9293;49.524;10.964;2023-01-10T15:56:46;12.23;;;3.35;;
18334;SDS011;9293;49.524;10.964;2023-01-10T15:59:34;9.18;;;3.13;;
18334;SDS011;9293;49.524;10.964;2023-01-10T16:02:22;10.02;;;3.60;;
18334;SDS011;9293;49.524;10.964;2023-01-10T16:05:06;9.63;;;3.25;;
18334;SDS011;9293;49.524;10.964;2023-01-10T16:07:41;16.23;;;4.82;;
18334;SDS011;9293;49.524;10.964;2023-01-10T16:10:18;16.75;;;4.47;;
18334;SDS011;9293;49.524;10.964;2023-01-10T16:12:49;17.92;;;5.53;;
18334;SDS011;9293;49.524;10.964;2023-01-10T16:15:36;14.77;;;5.20;;
18334;SDS011;9293;49.524;10.964;2023-01-10T16:18:10;12.43;;;4.93;;
18334;SDS011;9293;49.524;10.964;2023-01-10T16:20:41;12.82;;;5.05;;
18334;SDS011;9293;49.524;10.964;2023-01-10T16:23:12;12.98;;;4.15;;
18334;SDS011;9293;49.524;10.964;2023-01-10T16:25:46;17.23;;;7.60;;
18334;SDS011;9293;49.524;10.964;2023-01-10T16:28:17;17.63;;;9.00;;
18334;SDS011;9293;49.524;10.964;2023-01-10T16:30:47;19.67;;;9.95;;
18334;SDS011;9293;49.524;10.964;2023-01-10T16:33:17;17.90;;;5.90;;
18334;SDS011;9293;49.524;10.964;2023-01-10T16:35:50;16.23;;;4.85;;
18334;SDS011;9293;49.524;10.964;2023-01-10T16:38:20;14.73;;;5.38;;
18334;SDS011;9293;49.524;10.964;2023-01-10T16:40:52;12.85;;;4.43;;
18334;SDS011;9293;49.524;10.964;2023-01-10T16:43:27;13.07;;;4.35;;
18334;SDS011;9293;49.524;10.964;2023-01-10T16:45:57;13.27;;;4.85;;
18334;SDS011;9293;49.524;10.964;2023-01-10T16:48:30;12.27;;;4.32;;
18334;SDS011;9293;49.524;10.964;2023-01-10T16:51:12;18.45;;;5.20;;
18334;SDS011;9293;49.524;10.964;2023-01-10T16:53:44;9.50;;;4.10;;
18334;SDS011;9293;49.524;10.964;2023-01-10T16:56:13;10.43;;;4.40;;
18334;SDS011;9293;49.524;10.964;2023-01-10T16:58:43;10.15;;;4.43;;
18334;SDS011;9293;49.524;10.964;2023-01-10T17:01:20;10.80;;;4.07;;
18334;SDS011;9293;49.524;10.964;2023-01-10T17:03:51;12.10;;;4.60;;
18334;SDS011;9293;49.524;10.964;2023-01-10T17:06:19;9.50;;;3.95;;
18334;SDS011;9293;49.524;10.964;2023-01-10T17:08:47;16.33;;;4.95;;
18334;SDS011;9293;49.524;10.964;2023-01-10T17:11:16;13.45;;;4.50;;